Archival Weather

Fukuoka

Fukuoka, Japan (RJFF)

Report from: Tuesday, August 16, 2022 6:00 AM JST
Current time: Sunday, November 27, 2022 5:43 PM JST

Current weather
Weather history
Weather forecast

Present weatherVCSH, light rain showers
Temperature29.0°C (84.2°F)
Heat index34.6°C (94.3°F)
Dew point25.0°C (77.0°F)
Winds 10 kts (5.1 m/s, 11.5 mph) South-Southeast (150°)
Visibility6.2 mi. (10 km)
Clouds Few clouds 500 ft. (152 m)
Ceiling: Broken clouds 3,000 ft. (914 m)
Broken clouds 3,500 ft. (1,067 m)
Altimeter29.71 in.Hg (1006 mB)
Relative humidity79 %
Density altitude2,275 ft. (693 m)
Flight conditions Visual Meteorological Conditions
Raw dataRJFF 152100Z 15010KT 9999 VCSH FEW005 BKN030 BKN035 29/25 Q1006 TEMPO FM2200 4000 -SHRA BR RMK 1ST005 5CU030 6CU035 A2973
An error has occurred. This application may no longer respond until reloaded. Reload 🗙